Time;durP1;ratioP1;P1;durP2;ratioP2;P2;SDS_P1;SDS_P2;PMS_P1;PMS_P2;Temp;Humidity;BMP_temperature;BMP_pressure;BME280_temperature;BME280_humidity;BME280_pressure;Samples;Min_cycle;Max_cycle;Signal;HPM_P1;HPM_P2
2021/01/20 00:00:33;;;;;;;84.82;59.15;;;;;;;-1.16;92.96;101268.97;5098737;28;20044;-75
2021/01/20 00:03:37;;;;;;;93.85;63.45;;;;;;;-1.18;92.99;101265.53;5092270;28;20048;-74
2021/01/20 00:06:41;;;;;;;94.03;65.18;;;;;;;-1.23;93.17;101272.69;5088513;28;20405;-76
2021/01/20 00:09:46;;;;;;;98.03;66.20;;;;;;;-1.26;93.31;101272.78;5078311;28;20044;-74
2021/01/20 00:12:50;;;;;;;103.38;67.25;;;;;;;-1.23;93.37;101261.31;5094366;28;20036;-75
2021/01/20 00:15:55;;;;;;;94.22;64.55;;;;;;;-1.15;93.66;101244.38;5088719;28;20036;-74
2021/01/20 00:19:00;;;;;;;91.00;65.95;;;;;;;-1.13;93.67;101244.34;5074617;28;20033;-74
2021/01/20 00:22:04;;;;;;;89.53;63.45;;;;;;;-1.08;93.01;101240.69;5074806;28;20044;-74
2021/01/20 00:25:09;;;;;;;95.05;66.25;;;;;;;-1.10;93.23;101237.22;5073186;28;20045;-75
2021/01/20 00:28:13;;;;;;;91.00;61.28;;;;;;;-1.03;93.37;101241.44;5075876;28;20037;-73
2021/01/20 00:31:18;;;;;;;89.90;60.00;;;;;;;-0.97;93.15;101248.31;5093659;28;20036;-75
2021/01/20 00:34:23;;;;;;;95.70;65.10;;;;;;;-0.91;93.29;101246.38;5094013;28;20407;-76
2021/01/20 00:37:27;;;;;;;96.03;66.32;;;;;;;-0.88;92.94;101237.53;5094810;28;20044;-73
2021/01/20 00:40:31;;;;;;;97.30;65.68;;;;;;;-0.76;92.88;101247.72;5094519;28;20467;-73
2021/01/20 00:43:36;;;;;;;99.15;67.13;;;;;;;-0.71;92.93;101251.09;5076877;28;20041;-73
2021/01/20 00:46:40;;;;;;;98.28;65.53;;;;;;;-0.64;92.50;101238.63;5088914;28;20048;-73
2021/01/20 00:49:45;;;;;;;102.45;64.82;;;;;;;-0.64;92.52;101228.09;5093795;28;20048;-75
2021/01/20 00:52:50;;;;;;;100.47;65.60;;;;;;;-0.62;92.69;101236.81;5086828;28;20472;-74
2021/01/20 00:55:54;;;;;;;95.80;63.95;;;;;;;-0.48;92.36;101243.44;5074304;28;20052;-75
2021/01/20 00:58:58;;;;;;;96.43;65.55;;;;;;;-0.45;92.00;101245.13;5079016;28;20040;-73
2021/01/20 01:02:03;;;;;;;99.80;65.68;;;;;;;-0.38;92.33;101244.03;5087564;28;20040;-73
2021/01/20 01:05:13;;;;;;;97.18;63.40;;;;;;;-0.31;92.11;101227.09;5092288;28;20482;-75
2021/01/20 01:08:18;;;;;;;91.95;62.88;;;;;;;-0.23;92.16;101238.31;5093492;28;20475;-75
2021/01/20 01:11:25;;;;;;;97.10;64.82;;;;;;;-0.21;91.91;101239.13;5093641;28;20036;-76
2021/01/20 01:14:34;;;;;;;88.93;63.20;;;;;;;-0.18;91.86;101236.41;5093233;28;20048;-74
2021/01/20 01:17:59;;;;;;;95.57;62.78;;;;;;;-0.19;91.72;101230.25;5094169;28;20036;-74
2021/01/20 01:21:04;;;;;;;91.97;60.35;;;;;;;-0.10;91.83;101231.75;5093317;28;20044;-74
2021/01/20 01:24:08;;;;;;;95.10;62.78;;;;;;;-0.01;91.78;101236.75;5092702;28;20044;-73
2021/01/20 01:27:14;;;;;;;89.25;63.25;;;;;;;0.03;91.48;101225.19;5094093;28;20052;-73
2021/01/20 01:30:19;;;;;;;97.32;64.60;;;;;;;-0.01;91.76;101213.88;5094262;28;20059;-75
2021/01/20 01:33:24;;;;;;;89.35;63.22;;;;;;;-0.02;91.46;101213.91;5093176;28;20048;-75
2021/01/20 01:36:30;;;;;;;95.00;62.13;;;;;;;-0.05;91.78;101214.03;5093370;28;20040;-73
2021/01/20 01:39:42;;;;;;;95.88;62.75;;;;;;;-0.09;91.89;101200.03;5093152;28;20048;-75
2021/01/20 01:42:47;;;;;;;89.68;61.33;;;;;;;-0.02;92.15;101198.06;5093198;28;20052;-74
2021/01/20 01:45:53;;;;;;;97.00;63.90;;;;;;;-0.07;92.39;101192.94;5093125;28;20418;-73
2021/01/20 01:48:58;;;;;;;95.43;63.22;;;;;;;0.02;92.48;101193.56;5093477;28;20077;-75
2021/01/20 01:52:02;;;;;;;89.78;59.97;;;;;;;0.08;92.93;101196.88;5093187;28;20047;-75
2021/01/20 01:55:15;;;;;;;89.75;59.60;;;;;;;0.17;92.93;101193.09;5094101;28;20067;-73
2021/01/20 01:58:44;;;;;;;84.28;56.08;;;;;;;0.20;92.73;101190.38;5092846;28;20047;-76
2021/01/20 02:01:55;;;;;;;86.05;54.42;;;;;;;0.23;92.88;101190.25;5093205;28;20047;-74
2021/01/20 02:05:08;;;;;;;80.97;55.67;;;;;;;0.26;92.85;101188.38;5092538;28;20047;-74
2021/01/20 02:08:17;;;;;;;86.65;56.75;;;;;;;0.30;92.87;101190.00;5092664;28;20051;-75
2021/01/20 02:12:06;;;;;;;76.38;53.70;;;;;;;0.34;92.74;101191.63;5093612;28;20051;-76
2021/01/20 02:15:39;;;;;;;74.88;52.67;;;;;;;0.40;92.59;101177.34;5093550;28;20055;-75
2021/01/20 02:18:48;;;;;;;79.03;52.50;;;;;;;0.41;92.63;101172.03;5084370;28;20047;-74
2021/01/20 02:22:21;;;;;;;74.82;50.25;;;;;;;0.45;92.59;101172.78;5096605;28;20047;-74
2021/01/20 02:25:32;;;;;;;77.28;52.88;;;;;;;0.52;92.68;101180.44;5097259;28;20064;-73
2021/01/20 02:29:15;;;;;;;68.70;49.55;;;;;;;0.57;92.40;101173.22;5097318;28;20046;-77
2021/01/20 02:32:29;;;;;;;73.60;50.35;;;;;;;0.66;92.37;101166.78;5096561;28;20058;-75
2021/01/20 02:35:34;;;;;;;69.80;49.33;;;;;;;0.72;92.18;101169.19;5096386;28;20051;-77
2021/01/20 02:38:40;;;;;;;73.97;51.53;;;;;;;0.71;92.13;101169.28;5096562;28;20051;-75
2021/01/20 02:41:47;;;;;;;76.60;51.50;;;;;;;0.74;91.93;101172.66;5096538;28;20056;-73
2021/01/20 02:45:05;;;;;;;67.60;48.67;;;;;;;0.80;92.15;101166.28;5096447;28;20410;-74
2021/01/20 02:48:21;;;;;;;67.30;48.33;;;;;;;0.78;91.67;101162.84;5084403;28;20043;-74
2021/01/20 02:51:52;;;;;;;72.82;52.75;;;;;;;0.79;91.89;101165.44;5084271;28;20490;-73
2021/01/20 02:55:17;;;;;;;70.25;50.92;;;;;;;0.79;91.97;101159.31;5096484;28;20047;-75
2021/01/20 02:58:55;;;;;;;77.13;54.15;;;;;;;0.78;91.91;101157.56;5077804;28;20051;-74
2021/01/20 03:02:13;;;;;;;72.30;50.15;;;;;;;0.80;91.93;101153.94;5096544;28;20051;-75
2021/01/20 03:05:18;;;;;;;69.60;49.95;;;;;;;0.88;92.25;101156.31;5096076;28;20047;-75
2021/01/20 03:08:25;;;;;;;71.57;51.03;;;;;;;0.90;92.01;101147.44;5096473;28;20051;-75
2021/01/20 03:11:29;;;;;;;76.22;50.10;;;;;;;0.96;92.06;101156.94;5096389;28;20051;-74
2021/01/20 03:14:35;;;;;;;72.70;51.70;;;;;;;0.95;92.26;101165.75;5096571;28;20051;-73
2021/01/20 03:17:40;;;;;;;67.88;49.75;;;;;;;0.96;92.02;101162.22;5096273;28;20055;-74
2021/01/20 03:20:44;;;;;;;71.15;52.05;;;;;;;0.92;91.84;101152.66;5096242;28;20048;-76
2021/01/20 03:23:48;;;;;;;82.97;58.05;;;;;;;0.82;91.84;101151.25;5095742;28;20055;-75
2021/01/20 03:26:53;;;;;;;84.68;59.50;;;;;;;0.76;91.88;101156.75;5094589;28;20043;-75
2021/01/20 03:29:57;;;;;;;80.97;56.85;;;;;;;0.75;91.67;101155.91;5096112;28;20051;-75
2021/01/20 03:33:02;;;;;;;84.72;58.28;;;;;;;0.70;91.52;101154.31;5096044;28;20055;-76
2021/01/20 03:36:06;;;;;;;79.07;58.53;;;;;;;0.70;91.45;101156.97;5095678;28;20505;-75
2021/01/20 03:39:10;;;;;;;83.78;57.55;;;;;;;0.72;91.46;101149.88;5095916;28;20391;-75
2021/01/20 03:42:15;;;;;;;86.80;59.40;;;;;;;0.72;91.33;101153.34;5096100;28;20059;-74
2021/01/20 03:45:19;;;;;;;88.32;58.22;;;;;;;0.65;91.71;101149.19;5096003;28;20051;-74
2021/01/20 03:48:23;;;;;;;84.13;59.47;;;;;;;0.71;91.71;101156.06;5095636;28;20485;-73
2021/01/20 03:51:29;;;;;;;82.45;58.78;;;;;;;0.71;91.91;101138.44;5095703;28;20043;-75
2021/01/20 03:54:35;;;;;;;82.32;58.92;;;;;;;0.75;91.82;101142.69;5095008;28;20055;-76
2021/01/20 03:57:39;;;;;;;86.18;58.40;;;;;;;0.73;91.83;101133.09;5095850;28;20043;-76
2021/01/20 04:00:44;;;;;;;87.57;61.50;;;;;;;0.71;91.71;101137.56;5095034;28;20047;-76
2021/01/20 04:03:48;;;;;;;82.38;57.80;;;;;;;0.75;91.82;101134.75;5095399;28;20051;-76
2021/01/20 04:07:01;;;;;;;87.05;60.35;;;;;;;0.75;91.72;101131.25;5083227;28;20505;-76
2021/01/20 04:10:09;;;;;;;90.13;59.47;;;;;;;0.79;91.49;101130.25;5095574;28;20051;-76
2021/01/20 04:13:13;;;;;;;78.13;56.83;;;;;;;0.83;91.43;101129.19;5094952;28;20055;-75
2021/01/20 04:16:18;;;;;;;79.68;57.30;;;;;;;0.76;91.02;101125.94;5095150;28;20047;-76
2021/01/20 04:19:22;;;;;;;81.28;58.72;;;;;;;0.76;91.15;101125.06;5095152;28;20055;-75
2021/01/20 04:22:27;;;;;;;79.32;56.30;;;;;;;0.78;91.11;101116.16;5095003;28;20395;-74
2021/01/20 04:25:31;;;;;;;82.75;58.60;;;;;;;0.78;91.11;101126.72;5094181;28;20392;-75
2021/01/20 04:28:36;;;;;;;84.43;59.03;;;;;;;0.75;90.96;101124.19;5094611;28;20051;-77
2021/01/20 04:31:40;;;;;;;86.35;60.35;;;;;;;0.67;91.42;101122.75;5095223;28;20043;-76
2021/01/20 04:34:45;;;;;;;89.88;60.65;;;;;;;0.58;91.67;101119.50;5094872;28;20043;-75
2021/01/20 04:37:49;;;;;;;87.45;61.47;;;;;;;0.64;92.13;101123.72;5093978;28;20509;-74
2021/01/20 04:40:57;;;;;;;85.75;60.47;;;;;;;0.66;92.52;101121.88;5094229;28;20051;-74
2021/01/20 04:44:01;;;;;;;86.82;58.55;;;;;;;0.74;92.61;101113.69;5094415;28;20445;-75
2021/01/20 04:47:06;;;;;;;88.25;59.50;;;;;;;0.81;92.55;101110.78;5094217;28;20513;-76
2021/01/20 04:50:13;;;;;;;82.72;58.95;;;;;;;0.87;92.58;101112.31;5094007;28;20059;-76
2021/01/20 04:53:20;;;;;;;80.00;57.90;;;;;;;0.90;92.49;101115.72;5094493;28;20058;-74
2021/01/20 04:56:24;;;;;;;83.88;57.15;;;;;;;0.92;92.03;101116.53;5094285;28;20059;-74
2021/01/20 04:59:29;;;;;;;84.43;57.80;;;;;;;0.76;91.95;101096.88;5094636;28;20054;-75
2021/01/20 05:02:35;;;;;;;78.03;58.38;;;;;;;0.85;91.92;101111.50;5094352;28;20067;-73
2021/01/20 05:05:39;;;;;;;80.13;57.42;;;;;;;0.89;91.86;101111.34;5094550;28;20050;-75
2021/01/20 05:08:44;;;;;;;76.20;53.75;;;;;;;0.95;92.06;101123.47;5094274;28;20047;-74
2021/01/20 05:11:49;;;;;;;75.97;53.58;;;;;;;1.00;91.52;101116.25;5093974;28;20497;-73
2021/01/20 05:14:54;;;;;;;74.70;51.05;;;;;;;1.03;91.26;101121.44;5094177;28;20055;-73
2021/01/20 05:18:01;;;;;;;69.47;52.25;;;;;;;1.05;91.33;101124.88;5094155;28;20478;-73
2021/01/20 05:21:18;;;;;;;76.20;54.42;;;;;;;1.06;91.06;101134.53;5093082;28;20051;-75
2021/01/20 05:24:23;;;;;;;79.13;55.75;;;;;;;1.10;91.21;101131.72;5090013;28;20054;-76
2021/01/20 05:27:31;;;;;;;81.85;58.72;;;;;;;1.14;91.27;101124.53;5075500;28;20769;-76
2021/01/20 05:30:44;;;;;;;83.85;58.58;;;;;;;1.13;91.07;101133.38;5094029;28;20047;-77
2021/01/20 05:33:48;;;;;;;81.63;57.40;;;;;;;1.13;91.19;101141.31;5093947;28;20051;-75
2021/01/20 05:37:03;;;;;;;84.53;61.45;;;;;;;1.12;91.17;101132.53;5093223;28;20051;-74
2021/01/20 05:40:18;;;;;;;84.43;60.80;;;;;;;1.15;91.24;101139.47;5093352;28;20052;-75
2021/01/20 05:43:26;;;;;;;87.78;61.65;;;;;;;1.11;90.95;101141.34;5093858;28;20043;-74
2021/01/20 05:46:33;;;;;;;84.72;60.13;;;;;;;1.13;90.99;101150.13;5094064;28;20051;-74
2021/01/20 05:49:37;;;;;;;89.15;61.80;;;;;;;1.01;90.93;101139.13;5093895;28;20497;-74
2021/01/20 05:53:05;;;;;;;88.03;63.10;;;;;;;0.88;91.24;101127.25;5097465;28;20494;-76
2021/01/20 05:56:09;;;;;;;90.43;66.78;;;;;;;0.82;91.16;101133.63;5098140;28;20399;-77
2021/01/20 05:59:24;;;;;;;92.97;68.75;;;;;;;0.75;90.83;101139.16;5097854;28;20055;-75
2021/01/20 06:02:29;;;;;;;98.45;72.20;;;;;;;0.64;91.27;101143.03;5096341;28;20047;-76
2021/01/20 06:05:34;;;;;;;103.20;73.22;;;;;;;0.54;91.42;101154.84;5079770;28;20044;-74
2021/01/20 06:08:38;;;;;;;111.03;81.32;;;;;;;0.48;91.50;101157.72;5097702;28;20044;-76
2021/01/20 06:11:43;;;;;;;94.18;68.53;;;;;;;0.50;91.34;101171.72;5097374;28;20044;-73
2021/01/20 06:14:47;;;;;;;96.18;69.75;;;;;;;0.44;91.38;101173.72;5097573;28;20051;-75
2021/01/20 06:17:55;;;;;;;99.85;73.05;;;;;;;0.41;91.77;101179.09;5097190;28;20039;-77
2021/01/20 06:20:59;;;;;;;102.22;72.90;;;;;;;0.39;92.05;101175.66;5096995;28;20039;-74
2021/01/20 06:24:12;;;;;;;102.65;74.47;;;;;;;0.34;92.23;101167.88;5095779;28;20044;-74
2021/01/20 06:27:28;;;;;;;100.65;73.55;;;;;;;0.35;92.52;101180.16;5097373;28;20040;-76
2021/01/20 06:30:37;;;;;;;103.65;73.35;;;;;;;0.36;92.59;101191.56;5097301;28;20036;-75
2021/01/20 06:33:42;;;;;;;103.57;73.50;;;;;;;0.41;92.46;101197.56;5096778;28;20398;-75
2021/01/20 06:36:46;;;;;;;100.25;70.05;;;;;;;0.44;92.28;101194.84;5096165;28;20475;-75
2021/01/20 06:39:50;;;;;;;105.32;70.57;;;;;;;0.49;92.22;101190.28;5097368;28;20052;-75
2021/01/20 06:42:54;;;;;;;113.70;76.28;;;;;;;0.46;92.66;101182.44;5097083;28;20391;-74
2021/01/20 06:46:21;;;;;;;112.80;76.55;;;;;;;0.46;92.89;101199.16;5096629;28;20467;-76
2021/01/20 06:49:33;;;;;;;103.90;73.07;;;;;;;0.51;92.71;101191.94;5096858;28;20037;-75
2021/01/20 06:53:04;;;;;;;111.38;75.05;;;;;;;0.43;92.60;101198.38;5096400;28;20040;-74
2021/01/20 06:56:43;;;;;;;106.15;72.10;;;;;;;0.40;92.57;101204.63;5096432;28;20044;-74
2021/01/20 07:00:08;;;;;;;113.30;73.20;;;;;;;0.40;92.74;101217.81;5095350;28;20044;-73
2021/01/20 07:03:13;;;;;;;106.20;70.20;;;;;;;0.49;92.41;101211.41;5095896;28;20044;-73
2021/01/20 07:06:35;;;;;;;102.95;69.35;;;;;;;0.45;92.51;101207.97;5095748;28;20044;-74
2021/01/20 07:09:49;;;;;;;101.82;70.05;;;;;;;0.43;92.58;101215.09;5095769;28;20483;-74
2021/01/20 07:13:09;;;;;;;100.13;70.78;;;;;;;0.46;92.57;101229.97;5094363;28;20044;-73
2021/01/20 07:16:16;;;;;;;101.28;69.10;;;;;;;0.51;92.44;101223.63;5092925;28;20395;-74
2021/01/20 07:19:32;;;;;;;100.15;70.15;;;;;;;0.55;92.50;101227.88;5092095;28;20040;-74
2021/01/20 07:22:40;;;;;;;97.68;70.55;;;;;;;0.61;92.44;101234.75;5092068;28;20476;-74
2021/01/20 07:25:26;;;;;;;100.28;71.22;;;;;;;0.68;92.22;101227.47;5094008;28;20051;-74
2021/01/20 07:28:31;;;;;;;103.13;72.13;;;;;;;0.71;92.41;101230.03;5095855;28;20404;-74
2021/01/20 07:31:44;;;;;;;96.82;70.25;;;;;;;0.72;91.98;101232.59;5096238;28;20475;-74
2021/01/20 07:34:48;;;;;;;94.93;67.90;;;;;;;0.72;91.98;101232.59;5095009;28;20056;-74
2021/01/20 07:38:00;;;;;;;98.47;70.70;;;;;;;0.78;91.74;101244.75;5095895;28;20047;-74
2021/01/20 07:41:16;;;;;;;97.15;68.70;;;;;;;0.84;91.74;101240.13;5095672;28;20047;-75
2021/01/20 07:44:20;;;;;;;98.43;70.32;;;;;;;0.93;91.49;101242.47;5095745;28;20055;-74
2021/01/20 07:47:24;;;;;;;96.90;70.68;;;;;;;0.91;91.21;101248.72;5094652;28;20391;-72
2021/01/20 07:50:36;;;;;;;99.10;70.95;;;;;;;0.87;91.25;101252.38;5095681;28;20375;-75
2021/01/20 07:53:40;;;;;;;98.97;69.93;;;;;;;0.91;91.46;101244.31;5095550;28;20075;-75
2021/01/20 07:56:48;;;;;;;95.30;69.55;;;;;;;0.97;90.89;101245.84;5095624;28;20051;-74
2021/01/20 08:00:02;;;;;;;100.43;70.38;;;;;;;0.96;90.58;101245.00;5095232;28;20055;-74
2021/01/20 08:03:33;;;;;;;100.50;71.32;;;;;;;0.97;91.01;101254.66;5095536;28;20048;-73
2021/01/20 08:06:42;;;;;;;100.45;71.82;;;;;;;0.79;91.14;101246.50;5095379;28;20044;-73
2021/01/20 08:09:46;;;;;;;101.05;72.95;;;;;;;0.77;91.54;101258.88;5095304;28;20044;-74
2021/01/20 08:12:51;;;;;;;104.43;74.95;;;;;;;0.82;91.69;101262.22;5095178;28;20463;-75
2021/01/20 08:15:57;;;;;;;100.03;73.65;;;;;;;0.92;92.00;101261.00;5094625;28;20040;-76
2021/01/20 08:19:04;;;;;;;92.80;70.50;;;;;;;1.07;91.49;101249.91;5095110;28;20040;-73
2021/01/20 08:22:12;;;;;;;94.72;69.13;;;;;;;1.14;91.13;101256.69;5095067;28;20055;-78
2021/01/20 08:25:23;;;;;;;94.70;69.10;;;;;;;1.15;90.86;101263.72;5094226;28;20050;-74
2021/01/20 08:28:27;;;;;;;93.25;68.10;;;;;;;1.18;90.68;101263.63;5094656;28;20054;-75
2021/01/20 08:31:32;;;;;;;94.15;67.82;;;;;;;1.18;90.28;101245.13;5094039;28;20051;-74
2021/01/20 08:34:38;;;;;;;90.65;67.13;;;;;;;1.24;89.80;101227.25;5094537;28;20051;-75
2021/01/20 08:37:42;;;;;;;89.55;65.82;;;;;;;1.43;89.42;101245.13;5094746;28;20127;-75
2021/01/20 08:41:13;;;;;;;93.47;65.80;;;;;;;2.04;87.97;101246.31;5094816;28;20051;-75
2021/01/20 08:44:19;;;;;;;86.30;63.70;;;;;;;2.49;86.32;101279.81;5094393;28;20110;-74
2021/01/20 08:47:23;;;;;;;83.78;61.33;;;;;;;2.74;84.23;101282.31;5094607;28;20039;-74
2021/01/20 08:50:29;;;;;;;86.82;63.13;;;;;;;3.15;82.91;101272.66;5094573;28;20502;-75
2021/01/20 08:53:33;;;;;;;90.35;66.65;;;;;;;3.87;80.36;101277.38;5094468;28;20051;-75
2021/01/20 08:56:38;;;;;;;88.57;65.80;;;;;;;3.87;78.68;101265.91;5094548;28;20051;-75
2021/01/20 08:59:58;;;;;;;91.93;68.88;;;;;;;4.16;77.40;101265.41;5094507;28;20055;-75
2021/01/20 09:03:14;;;;;;;96.10;72.45;;;;;;;4.10;76.43;101265.69;5094464;28;20047;-74
2021/01/20 09:06:18;;;;;;;104.05;78.13;;;;;;;3.93;76.86;101270.91;5093556;28;20486;-74
2021/01/20 09:09:22;;;;;;;96.93;75.72;;;;;;;3.61;77.71;101284.78;5094354;28;20044;-74
2021/01/20 09:12:26;;;;;;;99.05;75.28;;;;;;;3.26;79.02;101281.00;5094327;28;20055;-74
2021/01/20 09:15:31;;;;;;;91.57;71.55;;;;;;;3.09;80.70;101272.91;5093440;28;20122;-75
2021/01/20 09:18:36;;;;;;;96.57;74.35;;;;;;;2.85;81.65;101280.13;5093384;28;20051;-75
2021/01/20 09:21:47;;;;;;;94.07;73.00;;;;;;;2.64;82.72;101281.84;5093836;28;20051;-74
2021/01/20 09:24:51;;;;;;;99.78;72.97;;;;;;;2.45;84.22;101290.59;5093304;28;20043;-74
2021/01/20 09:27:57;;;;;;;98.15;71.05;;;;;;;2.45;84.53;101293.25;5093719;28;20063;-75
2021/01/20 09:31:01;;;;;;;104.30;75.03;;;;;;;2.42;84.96;101286.28;5092833;28;20044;-74
2021/01/20 09:34:08;;;;;;;99.07;73.72;;;;;;;2.44;85.39;101289.75;5093922;28;20040;-75
2021/01/20 09:37:13;;;;;;;104.88;75.13;;;;;;;2.43;85.65;101277.41;5093150;28;20043;-75
2021/01/20 09:40:18;;;;;;;104.60;75.78;;;;;;;2.45;85.32;101296.75;5093424;28;20099;-73
2021/01/20 09:43:23;;;;;;;112.97;80.32;;;;;;;2.34;85.75;101295.47;5093858;28;20036;-74
2021/01/20 09:46:28;;;;;;;109.68;77.35;;;;;;;2.31;86.57;101303.53;5093889;28;20044;-74
2021/01/20 09:49:32;;;;;;;103.50;76.82;;;;;;;2.36;86.39;101306.84;5093872;28;20049;-74
2021/01/20 09:52:37;;;;;;;101.05;75.18;;;;;;;2.34;86.93;101306.06;5093640;28;20048;-74
2021/01/20 09:55:42;;;;;;;102.90;76.95;;;;;;;2.37;86.87;101298.00;5093630;28;20040;-74
2021/01/20 09:58:47;;;;;;;108.03;78.78;;;;;;;2.40;86.90;101289.91;5093043;28;20398;-74
2021/01/20 10:01:51;;;;;;;107.03;77.60;;;;;;;2.47;86.77;101288.72;5093666;28;20391;-74
2021/01/20 10:04:56;;;;;;;102.55;76.38;;;;;;;2.50;86.57;101289.50;5093004;28;20036;-75
2021/01/20 10:08:03;;;;;;;103.20;75.53;;;;;;;2.59;86.48;101296.22;5092966;28;20048;-75
2021/01/20 10:11:07;;;;;;;103.68;77.93;;;;;;;2.60;86.66;101284.69;5093771;28;20447;-73
2021/01/20 10:14:12;;;;;;;108.78;80.05;;;;;;;2.64;86.54;101275.72;5093602;28;20400;-74
2021/01/20 10:17:16;;;;;;;113.07;83.30;;;;;;;2.59;86.41;101267.91;5092857;28;20048;-76
2021/01/20 10:20:23;;;;;;;109.15;83.70;;;;;;;2.59;86.59;101267.91;5093868;28;20459;-74
2021/01/20 10:23:28;;;;;;;109.30;81.72;;;;;;;2.60;86.78;101266.13;5093363;28;20056;-74
2021/01/20 10:26:32;;;;;;;106.47;80.72;;;;;;;2.54;87.13;101269.88;5093586;28;20375;-74
2021/01/20 10:29:37;;;;;;;112.20;81.95;;;;;;;2.44;87.32;101265.03;5093553;28;20060;-74
2021/01/20 10:32:41;;;;;;;115.10;85.55;;;;;;;2.41;87.73;101270.44;5093466;28;20048;-74
2021/01/20 10:35:46;;;;;;;111.80;83.40;;;;;;;2.41;87.96;101263.38;5092637;28;20036;-74
2021/01/20 10:38:50;;;;;;;116.68;84.88;;;;;;;2.39;88.43;101246.69;5096251;28;20058;-76
2021/01/20 10:41:55;;;;;;;114.65;83.63;;;;;;;2.48;88.33;101253.38;5096788;28;20032;-75
2021/01/20 10:45:01;;;;;;;118.85;88.32;;;;;;;2.45;88.52;101250.84;5097024;28;20471;-75
2021/01/20 10:48:08;;;;;;;114.93;85.75;;;;;;;2.57;88.65;101240.63;5096965;28;20040;-73
2021/01/20 10:51:12;;;;;;;118.75;85.65;;;;;;;2.66;88.55;101220.84;5096812;28;20036;-74
2021/01/20 10:54:17;;;;;;;120.70;87.20;;;;;;;2.78;88.53;101224.75;5096726;28;20044;-75
2021/01/20 10:57:22;;;;;;;124.18;91.10;;;;;;;2.85;87.95;101219.13;5096723;28;20040;-74
2021/01/20 11:00:27;;;;;;;117.68;87.70;;;;;;;2.91;87.63;101212.72;5096419;28;20040;-74
2021/01/20 11:03:32;;;;;;;122.13;90.93;;;;;;;3.03;87.17;101220.16;5096633;28;20040;-75
2021/01/20 11:06:36;;;;;;;123.38;91.88;;;;;;;3.05;86.66;101215.63;5095478;28;20044;-76
2021/01/20 11:09:42;;;;;;;119.32;88.65;;;;;;;3.00;87.00;101223.78;5096490;28;20395;-75
2021/01/20 11:12:48;;;;;;;120.28;90.03;;;;;;;3.02;87.09;101231.66;5096503;28;20040;-75
2021/01/20 11:15:52;;;;;;;116.25;84.68;;;;;;;3.05;87.42;101219.16;5096338;28;20051;-75
2021/01/20 11:18:57;;;;;;;115.03;87.57;;;;;;;3.15;86.84;101215.19;5096403;28;20032;-74
2021/01/20 11:22:01;;;;;;;115.28;87.80;;;;;;;3.20;86.68;101199.94;5096525;28;20048;-74
2021/01/20 11:25:07;;;;;;;120.85;89.20;;;;;;;3.36;86.78;101185.97;5095676;28;20048;-74
2021/01/20 11:28:12;;;;;;;120.05;92.30;;;;;;;3.41;85.79;101181.34;5096048;28;20052;-73
2021/01/20 11:31:17;;;;;;;119.40;88.63;;;;;;;3.65;85.12;101175.75;5096063;28;20048;-74
2021/01/20 11:34:22;;;;;;;118.70;91.88;;;;;;;3.77;84.46;101172.53;5096015;28;20390;-75
2021/01/20 11:37:26;;;;;;;119.53;92.40;;;;;;;3.86;83.80;101165.91;5095914;28;20486;-74
2021/01/20 11:40:32;;;;;;;118.43;91.57;;;;;;;3.93;83.20;101156.72;5095831;28;20052;-74
2021/01/20 11:43:36;;;;;;;119.90;89.05;;;;;;;4.07;82.87;101138.34;5095915;28;20395;-74
2021/01/20 11:46:41;;;;;;;125.13;95.93;;;;;;;4.29;82.39;101131.03;5095808;28;20394;-72
2021/01/20 11:49:45;;;;;;;129.68;97.18;;;;;;;4.34;81.13;101131.69;5094772;28;20048;-73
2021/01/20 11:52:52;;;;;;;131.60;97.60;;;;;;;4.36;80.68;101121.81;5095666;28;20044;-74
2021/01/20 11:55:56;;;;;;;128.32;96.85;;;;;;;4.38;80.49;101137.69;5095402;28;20044;-75
2021/01/20 11:59:00;;;;;;;124.05;99.20;;;;;;;4.39;80.72;101134.97;5095522;28;20047;-74
2021/01/20 12:02:04;;;;;;;132.60;100.28;;;;;;;4.41;80.79;101132.22;5095468;28;20048;-75
2021/01/20 12:05:11;;;;;;;130.55;102.47;;;;;;;4.38;80.85;101130.56;5095484;28;20052;-74
2021/01/20 12:08:17;;;;;;;133.65;105.53;;;;;;;4.37;80.70;101117.38;5095374;28;20044;-75
2021/01/20 12:11:22;;;;;;;142.50;108.15;;;;;;;4.23;79.95;101117.19;5095614;28;20048;-74
2021/01/20 12:14:27;;;;;;;131.13;102.80;;;;;;;4.24;79.93;101117.13;5095344;28;20048;-74
2021/01/20 12:17:32;;;;;;;138.90;104.88;;;;;;;4.26;80.22;101117.03;5095218;28;20471;-74
2021/01/20 12:20:36;;;;;;;136.65;103.75;;;;;;;4.28;81.04;101120.47;5095152;28;20048;-74
2021/01/20 12:23:41;;;;;;;137.13;104.80;;;;;;;4.23;81.86;101111.88;5093923;28;20399;-75
2021/01/20 12:26:45;;;;;;;141.18;104.85;;;;;;;4.24;81.96;101103.84;5094223;28;20040;-74
2021/01/20 12:29:49;;;;;;;142.88;107.85;;;;;;;4.12;82.06;101109.75;5094114;28;20036;-74
2021/01/20 12:32:54;;;;;;;139.48;109.50;;;;;;;3.98;82.52;101106.91;5094099;28;20040;-78
2021/01/20 12:35:58;;;;;;;143.25;109.78;;;;;;;3.96;83.31;101106.13;5094866;28;20048;-75
2021/01/20 12:39:04;;;;;;;150.15;113.13;;;;;;;3.88;83.48;101106.50;5094789;28;20040;-74
2021/01/20 12:42:09;;;;;;;142.80;110.72;;;;;;;3.86;83.90;101103.03;5094740;28;20411;-75
2021/01/20 12:45:14;;;;;;;147.02;113.47;;;;;;;3.84;83.88;101094.31;5094631;28;20375;-78
2021/01/20 12:48:19;;;;;;;149.80;113.10;;;;;;;3.79;84.67;101098.09;5093833;28;20047;-79
2021/01/20 12:51:26;;;;;;;140.75;110.95;;;;;;;3.68;85.41;101093.31;5094563;28;20032;-79
2021/01/20 12:54:31;;;;;;;151.20;116.20;;;;;;;3.56;85.89;101104.50;5093528;28;20036;-74
2021/01/20 12:57:35;;;;;;;154.80;119.13;;;;;;;3.50;86.16;101095.97;5094228;28;20052;-74
2021/01/20 13:00:40;;;;;;;155.38;118.22;;;;;;;3.43;86.11;101084.81;5093882;28;20044;-74
2021/01/20 13:03:44;;;;;;;156.32;119.65;;;;;;;3.53;85.94;101087.88;5094365;28;20044;-77
2021/01/20 13:06:49;;;;;;;152.32;118.35;;;;;;;3.59;85.70;101071.66;5094297;28;20048;-77
2021/01/20 13:09:57;;;;;;;160.60;123.22;;;;;;;3.60;85.74;101076.03;5094345;28;20402;-74
2021/01/20 13:13:01;;;;;;;168.13;124.93;;;;;;;3.60;86.07;101079.56;5094302;28;20052;-78
2021/01/20 13:16:10;;;;;;;161.88;122.00;;;;;;;3.62;85.83;101072.38;5094257;28;20040;-76
2021/01/20 13:19:16;;;;;;;160.70;121.68;;;;;;;3.66;85.70;101067.75;5094272;28;20039;-79
2021/01/20 13:22:27;;;;;;;164.38;123.05;;;;;;;3.69;85.29;101065.84;5094243;28;20051;-75
2021/01/20 13:25:32;;;;;;;165.52;126.18;;;;;;;3.79;85.17;101061.81;5092645;28;20048;-75
2021/01/20 13:28:38;;;;;;;156.63;122.18;;;;;;;3.93;84.80;101061.13;5093046;28;20044;-75
2021/01/20 13:31:42;;;;;;;162.05;126.07;;;;;;;3.97;84.44;101049.41;5094118;28;20044;-74
2021/01/20 13:34:46;;;;;;;167.23;128.63;;;;;;;4.01;84.69;101061.59;5093940;28;20048;-78
2021/01/20 13:37:51;;;;;;;169.35;132.38;;;;;;;3.80;84.18;101065.31;5094019;28;20044;-75
2021/01/20 13:40:55;;;;;;;174.95;130.02;;;;;;;3.81;83.79;101077.66;5093990;28;20044;-74
2021/01/20 13:44:01;;;;;;;166.43;129.32;;;;;;;3.79;83.81;101071.56;5093970;28;20052;-75
2021/01/20 13:47:06;;;;;;;175.30;134.45;;;;;;;3.79;83.88;101067.09;5093847;28;20032;-74
2021/01/20 13:50:11;;;;;;;177.50;135.43;;;;;;;3.73;84.44;101047.94;5093878;28;20040;-77
2021/01/20 13:53:17;;;;;;;183.38;139.93;;;;;;;3.61;85.30;101044.09;5093817;28;20044;-75
2021/01/20 13:56:22;;;;;;;187.48;141.55;;;;;;;3.62;85.84;101040.53;5093788;28;20043;-78
2021/01/20 13:59:26;;;;;;;196.10;147.18;;;;;;;3.59;86.58;101053.06;5092986;28;20036;-78
2021/01/20 14:02:31;;;;;;;190.63;144.32;;;;;;;3.68;86.93;101045.53;5093747;28;20040;-78
2021/01/20 14:05:36;;;;;;;195.23;147.98;;;;;;;3.71;86.52;101040.06;5093667;28;20036;-79
2021/01/20 14:08:40;;;;;;;195.13;148.13;;;;;;;3.76;86.28;101048.66;5093730;28;20036;-78
2021/01/20 14:11:44;;;;;;;198.60;149.18;;;;;;;3.74;86.33;101044.38;5093690;28;20040;-75
2021/01/20 14:14:49;;;;;;;196.85;148.98;;;;;;;3.71;86.06;101039.19;5097504;28;20483;-76